createdAt,value
2022-10-02T00:35:21.037Z,90.60
2022-10-02T01:16:16.385Z,91.70
2022-10-02T01:24:05.072Z,92.40
2022-10-02T01:28:59.975Z,93.00
2022-10-02T07:11:04.019Z,93.60
2022-10-02T07:13:53.390Z,93.30
2022-10-02T07:16:35.496Z,94.40
2022-10-02T07:25:05.952Z,94.00
2022-10-02T07:30:02.848Z,94.00
2022-10-02T07:38:15.625Z,93.80
2022-10-02T07:41:18.469Z,95.40
2022-10-02T07:44:06.360Z,93.70
2022-10-02T07:46:51.624Z,97.50
2022-10-02T07:49:32.936Z,93.90
2022-10-02T07:52:36.883Z,93.50
2022-10-02T07:55:21.533Z,94.10
2022-10-02T08:00:18.806Z,94.30
2022-10-02T08:03:08.397Z,91.80
2022-10-02T08:05:41.139Z,91.30
2022-10-02T08:08:38.606Z,89.50
2022-10-02T08:11:17.128Z,91.30
2022-10-02T08:13:49.664Z,90.90
2022-10-02T08:16:17.941Z,94.80
2022-10-02T08:21:46.966Z,90.10
2022-10-02T08:24:42.957Z,89.40
2022-10-02T08:27:16.532Z,90.60
2022-10-02T08:29:49.360Z,94.10
2022-10-02T08:32:16.015Z,96.20
2022-10-02T08:34:44.083Z,89.30
2022-10-02T08:37:31.699Z,89.90
2022-10-02T08:40:16.991Z,90.60
2022-10-02T08:43:22.732Z,84.40
2022-10-02T08:54:07.260Z,76.50
2022-10-02T08:56:55.912Z,77.80
2022-10-02T08:59:54.940Z,78.30
2022-10-02T09:02:34.850Z,77.60
2022-10-02T09:05:20.592Z,78.90
2022-10-02T09:08:08.446Z,77.10
2022-10-02T09:10:58.959Z,76.10
2022-10-02T09:16:10.258Z,82.60
2022-10-02T09:18:54.261Z,78.20
2022-10-02T09:21:49.998Z,91.90
2022-10-02T09:26:59.140Z,85.50
2022-10-02T09:30:14.022Z,84.80
2022-10-02T09:33:06.754Z,91.40
2022-10-02T09:35:36.475Z,93.50
2022-10-02T09:38:45.604Z,90.60
2022-10-02T09:41:26.151Z,79.30
2022-10-02T09:46:49.331Z,73.30
2022-10-02T09:49:45.057Z,72.10
2022-10-02T09:52:42.898Z,67.90
2022-10-02T09:55:43.591Z,82.10
2022-10-02T09:58:32.334Z,66.10
2022-10-02T10:01:13.478Z,65.20
2022-10-02T10:04:01.567Z,81.50
2022-10-02T10:06:43.829Z,67.50
2022-10-02T10:09:48.532Z,69.20
2022-10-02T10:12:41.648Z,71.10
2022-10-02T10:23:07.270Z,63.20
2022-10-02T10:26:02.738Z,60.30
2022-10-02T10:29:09.237Z,56.60
2022-10-02T10:31:48.317Z,55.60
2022-10-02T10:34:39.065Z,52.00
2022-10-02T10:37:25.582Z,56.20
2022-10-02T10:40:15.764Z,56.00
2022-10-02T10:43:18.810Z,54.60
2022-10-02T10:46:06.582Z,56.90
2022-10-02T10:48:49.590Z,59.00
2022-10-02T10:51:30.280Z,60.50
2022-10-02T10:54:40.598Z,59.80
2022-10-02T10:57:22.583Z,64.30
2022-10-02T11:04:59.351Z,64.50
2022-10-02T11:08:07.353Z,65.50
2022-10-02T11:11:11.539Z,66.10
2022-10-02T11:13:42.635Z,73.10
2022-10-02T11:19:23.409Z,66.50
2022-10-02T11:22:07.901Z,67.50
2022-10-02T11:25:02.080Z,64.30
2022-10-02T11:31:47.260Z,66.60
2022-10-02T11:34:25.688Z,62.30
2022-10-02T11:37:31.690Z,68.40
2022-10-02T11:40:28.687Z,55.60
2022-10-02T11:43:22.855Z,47.40
2022-10-02T11:46:21.500Z,53.80
2022-10-02T11:49:03.192Z,66.90
2022-10-02T11:51:50.836Z,52.10
2022-10-02T11:54:50.900Z,58.80
2022-10-02T11:57:35.027Z,49.70
2022-10-02T12:00:39.463Z,47.50
2022-10-02T12:03:36.276Z,59.10
2022-10-02T12:06:42.058Z,44.40
2022-10-02T12:09:25.218Z,60.70
2022-10-02T12:12:09.485Z,41.50
2022-10-02T12:14:49.347Z,44.30
2022-10-02T12:20:31.454Z,43.10
2022-10-02T12:23:47.967Z,44.70
2022-10-02T12:27:03.840Z,44.60
2022-10-02T12:29:46.368Z,45.10
2022-10-02T12:32:36.076Z,45.90
2022-10-02T12:35:33.326Z,46.70
2022-10-02T12:38:40.586Z,53.50
2022-10-02T12:41:35.657Z,47.30
2022-10-02T12:44:14.338Z,47.40
2022-10-02T12:47:09.773Z,60.00
2022-10-02T12:50:17.624Z,42.90
2022-10-02T12:53:06.159Z,41.60
2022-10-02T12:56:14.034Z,40.60
2022-10-02T12:59:13.620Z,40.00
2022-10-02T13:02:07.199Z,39.40
2022-10-02T13:05:03.345Z,38.60
2022-10-02T13:07:58.335Z,41.40
2022-10-02T13:10:57.508Z,36.60
2022-10-02T13:13:46.551Z,37.20
2022-10-02T13:16:25.018Z,53.50
2022-10-02T13:21:41.240Z,39.90
2022-10-02T13:24:33.337Z,29.00
2022-10-02T13:27:37.814Z,29.40
2022-10-02T13:30:35.633Z,45.70
2022-10-02T13:33:16.826Z,28.90
2022-10-02T13:38:35.968Z,33.50
2022-10-02T13:43:56.417Z,38.10
2022-10-02T13:46:54.177Z,40.60
2022-10-02T13:49:39.976Z,42.30
2022-10-02T13:52:44.044Z,43.80
2022-10-02T13:55:34.495Z,44.90
2022-10-02T14:00:55.250Z,46.50
2022-10-02T14:03:43.890Z,47.20
2022-10-02T14:06:25.520Z,51.10
2022-10-02T14:09:23.559Z,49.40
2022-10-02T14:11:56.389Z,52.50
2022-10-02T14:14:56.100Z,59.20
2022-10-02T14:17:50.315Z,52.50
2022-10-02T14:20:38.228Z,61.30
2022-10-02T14:28:37.585Z,59.20
2022-10-02T14:31:10.219Z,58.30
2022-10-02T14:36:25.209Z,54.30
2022-10-02T14:39:00.460Z,67.20
2022-10-02T14:41:52.325Z,56.70
2022-10-02T14:44:43.724Z,56.80
2022-10-02T14:47:26.619Z,57.30
2022-10-02T14:52:40.932Z,55.00
2022-10-02T14:55:18.467Z,54.80
2022-10-02T14:58:07.630Z,55.40
2022-10-02T15:01:00.144Z,70.90
2022-10-02T15:04:04.770Z,55.30
2022-10-02T15:06:58.768Z,57.00
2022-10-02T15:12:04.392Z,54.90
2022-10-02T15:15:02.842Z,66.20
2022-10-02T15:17:56.856Z,62.30
2022-10-02T15:20:51.821Z,55.90
2022-10-02T15:23:44.142Z,56.70
2022-10-02T15:26:31.699Z,57.10
2022-10-02T15:29:21.552Z,57.70
2022-10-02T15:32:00.208Z,58.70
2022-10-02T15:34:46.425Z,60.40
2022-10-02T15:37:26.424Z,59.40
2022-10-02T15:40:05.547Z,60.10
2022-10-02T15:42:48.028Z,60.40
2022-10-02T15:45:35.788Z,60.70
2022-10-02T15:48:30.130Z,63.10
2022-10-02T15:51:03.191Z,70.30
2022-10-02T15:53:36.756Z,61.70
2022-10-02T15:58:52.662Z,63.10
2022-10-02T16:01:31.291Z,62.90
2022-10-02T16:04:27.283Z,65.50
2022-10-02T16:07:15.691Z,63.20
2022-10-02T16:09:50.250Z,63.50
2022-10-02T16:12:36.487Z,75.40
2022-10-02T16:17:53.148Z,64.90
2022-10-02T16:20:49.064Z,76.60
2022-10-02T16:23:44.961Z,65.70
2022-10-02T16:26:25.965Z,66.10
2022-10-02T16:29:11.294Z,66.50
2022-10-02T16:37:08.685Z,67.60
2022-10-02T16:42:29.083Z,68.10
2022-10-02T16:45:25.902Z,68.20
2022-10-02T16:48:02.398Z,83.20
2022-10-02T16:51:08.596Z,71.50
2022-10-02T16:54:05.752Z,68.50
2022-10-02T17:02:18.292Z,72.00
2022-10-02T17:07:48.283Z,69.70
2022-10-02T17:18:19.471Z,72.00
2022-10-02T17:31:22.031Z,72.70
2022-10-02T17:53:04.304Z,90.50
2022-10-02T17:56:23.723Z,75.70
2022-10-02T17:59:13.297Z,77.90
2022-10-02T18:02:11.199Z,77.70
2022-10-02T18:05:15.357Z,76.90
2022-10-02T18:08:09.006Z,77.10
2022-10-02T18:10:54.410Z,81.60
2022-10-02T18:13:29.843Z,77.60
2022-10-02T18:16:28.039Z,77.50
2022-10-02T18:32:35.907Z,78.90
2022-10-02T18:35:24.246Z,79.00
2022-10-02T18:43:21.904Z,80.50
2022-10-02T19:12:25.543Z,82.90
2022-10-02T19:14:56.046Z,83.90
2022-10-02T19:42:56.194Z,85.40
2022-10-02T19:47:58.204Z,85.90
2022-10-02T19:55:29.516Z,86.20
2022-10-02T22:54:37.661Z,90.30
